Time,TemperatureF,DewpointF,PressureIn,WindDirection,WindDirectionDegrees,WindSpeedMPH,WindSpeedGustMPH,Humidity,HourlyPrecipIn,Conditions,Clouds,dailyrainin,SoftwareType,DateUTC
2013-02-20 00:01:00,4.0,-2.0,-100.00,North,5,12.0,16.0,72,0.00,,,0.00,,2013-02-20 00:01:00,
2013-02-20 00:11:00,4.0,-2.0,-100.00,North,355,9.0,15.0,73,0.00,,,0.00,,2013-02-20 00:11:00,
2013-02-20 00:21:00,3.0,-2.0,-100.00,North,0,11.0,12.0,74,0.00,,,0.00,,2013-02-20 00:21:00,
2013-02-20 00:31:00,3.0,-4.0,-100.00,North,0,9.0,16.0,74,0.00,,,0.00,,2013-02-20 00:31:00,
2013-02-20 00:41:00,3.0,-2.0,-100.00,NNW,335,6.0,9.0,75,0.00,,,0.00,,2013-02-20 00:41:00,
2013-02-20 00:51:00,2.0,-4.0,-100.00,North,350,12.0,15.0,76,0.00,,,0.00,,2013-02-20 00:51:00,
2013-02-20 01:02:00,2.0,-4.0,-100.00,NNW,340,12.0,15.0,76,0.00,,,0.00,,2013-02-20 01:02:00,
2013-02-20 01:11:00,2.0,-4.0,-100.00,North,350,10.0,15.0,76,0.00,,,0.00,,2013-02-20 01:11:00,
2013-02-20 01:21:00,2.0,-4.0,-100.00,North,350,17.0,19.0,77,0.00,,,0.00,,2013-02-20 01:21:00,
2013-02-20 01:32:00,2.0,-4.0,-100.00,North,355,17.0,20.0,77,0.00,,,0.00,,2013-02-20 01:32:00,
2013-02-20 01:42:00,2.0,-4.0,-100.00,North,355,17.0,21.0,77,0.00,,,0.00,,2013-02-20 01:42:00,
2013-02-20 01:51:00,1.0,-4.0,-100.00,North,0,16.0,21.0,78,0.00,,,0.00,,2013-02-20 01:51:00,
2013-02-20 02:01:00,1.0,-4.0,-100.00,North,0,11.0,16.0,78,0.00,,,0.00,,2013-02-20 02:01:00,
2013-02-20 02:11:00,1.0,-4.0,-100.00,North,0,14.0,17.0,78,0.00,,,0.00,,2013-02-20 02:11:00,
2013-02-20 02:21:00,1.0,-4.0,-100.00,North,0,7.0,13.0,79,0.00,,,0.00,,2013-02-20 02:21:00,
2013-02-20 02:32:00,0.0,-4.0,-100.00,North,350,6.0,12.0,79,0.00,,,0.00,,2013-02-20 02:32:00,
2013-02-20 02:42:00,0.0,-4.0,-100.00,NNW,340,6.0,11.0,79,0.00,,,0.00,,2013-02-20 02:42:00,
2013-02-20 02:52:00,0.0,-4.0,-100.00,North,350,9.0,11.0,79,0.00,,,0.00,,2013-02-20 02:52:00,
2013-02-20 03:01:00,0.0,-6.0,-100.00,North,5,9.0,13.0,79,0.00,,,0.00,,2013-02-20 03:01:00,
2013-02-20 03:12:00,0.0,-6.0,-100.00,North,10,8.0,13.0,79,0.00,,,0.00,,2013-02-20 03:12:00,
2013-02-20 03:22:00,-1.0,-6.0,-100.00,North,0,9.0,12.0,79,0.00,,,0.00,,2013-02-20 03:22:00,
2013-02-20 03:32:00,-1.0,-6.0,-100.00,North,0,10.0,12.0,79,0.00,,,0.00,,2013-02-20 03:32:00,
2013-02-20 03:41:00,-1.0,-6.0,-100.00,North,0,12.0,16.0,79,0.00,,,0.00,,2013-02-20 03:41:00,
2013-02-20 03:51:00,-1.0,-6.0,-100.00,North,355,6.0,9.0,79,0.00,,,0.00,,2013-02-20 03:51:00,
2013-02-20 04:01:00,-1.0,-6.0,-100.00,North,0,9.0,11.0,79,0.00,,,0.00,,2013-02-20 04:01:00,
2013-02-20 04:11:00,-1.0,-6.0,-100.00,North,10,12.0,16.0,79,0.00,,,0.00,,2013-02-20 04:11:00,
2013-02-20 04:21:00,-2.0,-6.0,-100.00,North,5,10.0,14.0,80,0.00,,,0.00,,2013-02-20 04:21:00,
2013-02-20 04:31:00,-2.0,-6.0,-100.00,North,5,9.0,12.0,80,0.00,,,0.00,,2013-02-20 04:31:00,
2013-02-20 04:41:00,-2.0,-6.0,-100.00,North,0,8.0,11.0,80,0.00,,,0.00,,2013-02-20 04:41:00,
2013-02-20 04:51:00,-2.0,-6.0,-100.00,North,0,7.0,11.0,81,0.00,,,0.00,,2013-02-20 04:51:00,
2013-02-20 05:02:00,-2.0,-8.0,-100.00,North,0,6.0,9.0,81,0.00,,,0.00,,2013-02-20 05:02:00,
2013-02-20 05:12:00,-2.0,-8.0,-100.00,North,10,7.0,9.0,81,0.00,,,0.00,,2013-02-20 05:12:00,
2013-02-20 05:22:00,-3.0,-8.0,-100.00,NNE,20,9.0,11.0,81,0.00,,,0.00,,2013-02-20 05:22:00,
2013-02-20 05:32:00,-3.0,-8.0,-100.00,NNE,20,7.0,10.0,81,0.00,,,0.00,,2013-02-20 05:32:00,
2013-02-20 05:43:00,-3.0,-8.0,-100.00,NNE,25,7.0,9.0,81,0.00,,,0.00,,2013-02-20 05:43:00,
2013-02-20 05:52:00,-3.0,-8.0,-100.00,NNE,20,8.0,9.0,82,0.00,,,0.00,,2013-02-20 05:52:00,
2013-02-20 06:01:00,-3.0,-8.0,-100.00,NNE,30,7.0,9.0,82,0.00,,,0.00,,2013-02-20 06:01:00,
2013-02-20 06:11:00,-3.0,-8.0,-100.00,NE,35,10.0,12.0,82,0.00,,,0.00,,2013-02-20 06:11:00,
2013-02-20 06:21:00,-3.0,-8.0,-100.00,NE,35,11.0,14.0,82,0.00,,,0.00,,2013-02-20 06:21:00,
2013-02-20 06:31:00,-3.0,-8.0,-100.00,NE,40,7.0,13.0,82,0.00,,,0.00,,2013-02-20 06:31:00,
2013-02-20 06:42:00,-3.0,-8.0,-100.00,NE,50,7.0,11.0,82,0.00,,,0.00,,2013-02-20 06:42:00,
2013-02-20 06:51:00,-3.0,-8.0,-100.00,NE,50,7.0,11.0,82,0.00,,,0.00,,2013-02-20 06:51:00,
2013-02-20 07:01:00,-3.0,-8.0,-100.00,NE,50,7.0,11.0,82,0.00,,,0.00,,2013-02-20 07:01:00,
2013-02-20 07:11:00,-3.0,-8.0,-100.00,NE,50,7.0,11.0,82,0.00,,,0.00,,2013-02-20 07:11:00,
2013-02-20 07:21:00,-3.0,-8.0,-100.00,NE,50,7.0,11.0,82,0.00,,,0.00,,2013-02-20 07:21:00,
2013-02-20 07:31:00,-4.0,-8.0,-100.00,NE,45,7.0,7.0,82,0.00,,,0.00,,2013-02-20 07:31:00,
2013-02-20 07:42:00,-4.0,-8.0,-100.00,NE,50,9.0,11.0,82,0.00,,,0.00,,2013-02-20 07:42:00,
2013-02-20 07:51:00,-4.0,-8.0,-100.00,NE,55,9.0,11.0,82,0.00,,,0.00,,2013-02-20 07:51:00,
2013-02-20 08:05:00,-4.0,-8.0,-100.00,NE,50,11.0,13.0,81,0.00,,,0.00,,2013-02-20 08:05:00,
2013-02-20 08:11:00,-4.0,-8.0,-100.00,NE,50,8.0,11.0,81,0.00,,,0.00,,2013-02-20 08:11:00,
2013-02-20 08:21:00,-4.0,-8.0,-100.00,NE,45,9.0,11.0,81,0.00,,,0.00,,2013-02-20 08:21:00,
2013-02-20 08:31:00,-4.0,-9.0,-100.00,NE,55,12.0,15.0,81,0.00,,,0.00,,2013-02-20 08:31:00,
2013-02-20 08:41:00,-4.0,-9.0,-100.00,NE,55,9.0,13.0,81,0.00,,,0.00,,2013-02-20 08:41:00,
2013-02-20 08:52:00,-5.0,-9.0,-100.00,NE,50,7.0,12.0,81,0.00,,,0.00,,2013-02-20 08:52:00,
2013-02-20 09:01:00,-5.0,-9.0,-100.00,NE,50,9.0,11.0,81,0.00,,,0.00,,2013-02-20 09:01:00,
2013-02-20 09:11:00,-5.0,-9.0,-100.00,ENE,60,7.0,10.0,81,0.00,,,0.00,,2013-02-20 09:11:00,
2013-02-20 09:21:00,-5.0,-9.0,-100.00,NE,55,4.0,7.0,81,0.00,,,0.00,,2013-02-20 09:21:00,
2013-02-20 09:31:00,-5.0,-9.0,-100.00,West,260,1.0,6.0,81,0.00,,,0.00,,2013-02-20 09:31:00,
2013-02-20 09:41:00,-5.0,-9.0,-100.00,ENE,70,2.0,4.0,81,0.00,,,0.00,,2013-02-20 09:41:00,
2013-02-20 09:51:00,-5.0,-9.0,-100.00,NE,55,8.0,10.0,81,0.00,,,0.00,,2013-02-20 09:51:00,
2013-02-20 10:01:00,-5.0,-9.0,-100.00,NE,50,12.0,14.0,82,0.00,,,0.00,,2013-02-20 10:01:00,
2013-02-20 10:12:00,-5.0,-9.0,-100.00,NE,55,13.0,16.0,82,0.00,,,0.00,,2013-02-20 10:12:00,
2013-02-20 10:21:00,-5.0,-9.0,-100.00,ENE,60,9.0,15.0,82,0.00,,,0.00,,2013-02-20 10:21:00,
2013-02-20 10:31:00,-5.0,-9.0,-100.00,NE,55,5.0,10.0,82,0.00,,,0.00,,2013-02-20 10:31:00,
2013-02-20 10:41:00,-5.0,-9.0,-100.00,ENE,75,2.0,6.0,82,0.00,,,0.00,,2013-02-20 10:41:00,
2013-02-20 10:51:00,-5.0,-9.0,-100.00,North,350,0.0,1.0,82,0.00,,,0.00,,2013-02-20 10:51:00,
2013-02-20 11:02:00,-5.0,-9.0,-100.00,West,260,2.0,3.0,82,0.00,,,0.00,,2013-02-20 11:02:00,
2013-02-20 11:11:00,-5.0,-9.0,-100.00,WNW,285,1.0,2.0,82,0.00,,,0.00,,2013-02-20 11:11:00,
2013-02-20 11:21:00,-5.0,-9.0,-100.00,NE,45,5.0,6.0,82,0.00,,,0.00,,2013-02-20 11:21:00,
2013-02-20 11:32:00,-5.0,-9.0,-100.00,NE,50,6.0,6.0,83,0.00,,,0.00,,2013-02-20 11:32:00,
2013-02-20 11:41:00,-5.0,-9.0,-100.00,NE,50,6.0,7.0,83,0.00,,,0.00,,2013-02-20 11:41:00,
2013-02-20 11:52:00,-5.0,-9.0,-100.00,NE,55,7.0,9.0,83,0.00,,,0.00,,2013-02-20 11:52:00,
2013-02-20 12:01:00,-5.0,-9.0,-100.00,NE,45,4.0,9.0,83,0.00,,,0.00,,2013-02-20 12:01:00,
2013-02-20 12:12:00,-5.0,-9.0,-100.00,ENE,60,9.0,10.0,83,0.00,,,0.00,,2013-02-20 12:12:00,
2013-02-20 12:21:00,-5.0,-9.0,-100.00,NE,55,7.0,11.0,83,0.00,,,0.00,,2013-02-20 12:21:00,
2013-02-20 12:32:00,-5.0,-9.0,-100.00,ENE,60,7.0,12.0,83,0.00,,,0.00,,2013-02-20 12:32:00,
2013-02-20 12:42:00,-5.0,-9.0,-100.00,NE,50,7.0,10.0,83,0.00,,,0.00,,2013-02-20 12:42:00,
2013-02-20 12:52:00,-5.0,-8.0,-100.00,WNW,285,1.0,9.0,83,0.00,,,0.00,,2013-02-20 12:52:00,
2013-02-20 13:01:00,-5.0,-9.0,-100.00,East,80,6.0,7.0,83,0.00,,,0.00,,2013-02-20 13:01:00,
2013-02-20 13:11:00,-5.0,-9.0,-100.00,ENE,70,7.0,8.0,83,0.00,,,0.00,,2013-02-20 13:11:00,
2013-02-20 13:22:00,-4.0,-8.0,-100.00,East,85,7.0,10.0,83,0.00,,,0.00,,2013-02-20 13:22:00,
2013-02-20 13:31:00,-4.0,-8.0,-100.00,ENE,75,9.0,12.0,83,0.00,,,0.00,,2013-02-20 13:31:00,
2013-02-20 13:42:00,-4.0,-8.0,-100.00,ENE,65,6.0,11.0,83,0.00,,,0.00,,2013-02-20 13:42:00,
2013-02-20 13:51:00,-3.0,-8.0,-100.00,ENE,75,8.0,11.0,82,0.00,,,0.00,,2013-02-20 13:51:00,
2013-02-20 14:01:00,-3.0,-8.0,-100.00,ENE,75,10.0,12.0,82,0.00,,,0.00,,2013-02-20 14:01:00,
2013-02-20 14:11:00,-3.0,-8.0,-100.00,East,80,10.0,12.0,82,0.00,,,0.00,,2013-02-20 14:11:00,
2013-02-20 14:21:00,-3.0,-8.0,-100.00,East,80,7.0,14.0,82,0.00,,,0.00,,2013-02-20 14:21:00,
2013-02-20 14:32:00,-3.0,-8.0,-100.00,East,80,8.0,12.0,82,0.00,,,0.00,,2013-02-20 14:32:00,
2013-02-20 14:42:00,-2.0,-6.0,-100.00,East,85,11.0,12.0,81,0.00,,,0.00,,2013-02-20 14:42:00,
2013-02-20 14:52:00,-1.0,-6.0,-100.00,East,85,9.0,12.0,81,0.00,,,0.00,,2013-02-20 14:52:00,
2013-02-20 15:01:00,0.0,-4.0,-100.00,East,95,10.0,12.0,81,0.00,,,0.00,,2013-02-20 15:01:00,
2013-02-20 15:11:00,0.0,-4.0,-100.00,East,80,9.0,12.0,80,0.00,,,0.00,,2013-02-20 15:11:00,
2013-02-20 15:22:00,1.0,-4.0,-100.00,ESE,110,6.0,9.0,79,0.00,,,0.00,,2013-02-20 15:22:00,
2013-02-20 15:32:00,2.0,-2.0,-100.00,SE,130,6.0,9.0,79,0.00,,,0.00,,2013-02-20 15:32:00,
2013-02-20 15:41:00,2.0,-2.0,-100.00,SE,125,7.0,11.0,78,0.00,,,0.00,,2013-02-20 15:41:00,
2013-02-20 15:51:00,4.0,-2.0,-100.00,East,85,5.0,9.0,78,0.00,,,0.00,,2013-02-20 15:51:00,
2013-02-20 16:01:00,4.0,-2.0,-100.00,SE,135,8.0,11.0,77,0.00,,,0.00,,2013-02-20 16:01:00,
2013-02-20 16:11:00,5.0,0.0,-100.00,SE,135,7.0,11.0,77,0.00,,,0.00,,2013-02-20 16:11:00,
2013-02-20 16:21:00,5.0,0.0,-100.00,SE,130,9.0,10.0,76,0.00,,,0.00,,2013-02-20 16:21:00,
2013-02-20 16:32:00,6.0,0.0,-100.00,SE,135,7.0,12.0,76,0.00,,,0.00,,2013-02-20 16:32:00,
2013-02-20 16:41:00,8.0,1.0,-100.00,ESE,110,7.0,12.0,75,0.00,,,0.00,,2013-02-20 16:41:00,
2013-02-20 16:52:00,8.0,1.0,-100.00,SE,125,9.0,11.0,74,0.00,,,0.00,,2013-02-20 16:52:00,
2013-02-20 17:01:00,8.0,1.0,-100.00,SE,145,11.0,12.0,73,0.00,,,0.00,,2013-02-20 17:01:00,
2013-02-20 17:11:00,9.0,1.0,-100.00,ESE,120,7.0,12.0,72,0.00,,,0.00,,2013-02-20 17:11:00,
2013-02-20 17:21:00,11.0,3.0,-100.00,ESE,120,8.0,12.0,70,0.00,,,0.00,,2013-02-20 17:21:00,
2013-02-20 17:32:00,12.0,3.0,-100.00,ESE,110,8.0,12.0,67,0.00,,,0.00,,2013-02-20 17:32:00,
2013-02-20 17:41:00,12.0,3.0,-100.00,ESE,115,8.0,12.0,66,0.00,,,0.00,,2013-02-20 17:41:00,
2013-02-20 17:52:00,13.0,3.0,-100.00,East,100,9.0,13.0,65,0.00,,,0.00,,2013-02-20 17:52:00,
2013-02-20 18:02:00,13.0,3.0,-100.00,SE,140,9.0,14.0,65,0.00,,,0.00,,2013-02-20 18:02:00,
2013-02-20 18:11:00,14.0,5.0,-100.00,ESE,115,9.0,13.0,65,0.00,,,0.00,,2013-02-20 18:11:00,
2013-02-20 18:21:00,13.0,3.0,-100.00,SE,135,12.0,15.0,64,0.00,,,0.00,,2013-02-20 18:21:00,
2013-02-20 18:32:00,13.0,3.0,-100.00,SE,145,10.0,15.0,64,0.00,,,0.00,,2013-02-20 18:32:00,
2013-02-20 18:42:00,14.0,5.0,-100.00,SE,140,9.0,16.0,64,0.00,,,0.00,,2013-02-20 18:42:00,
2013-02-20 18:51:00,15.0,5.0,-100.00,SSE,155,11.0,16.0,63,0.00,,,0.00,,2013-02-20 18:51:00,
2013-02-20 19:01:00,15.0,5.0,-100.00,SSE,155,13.0,16.0,63,0.00,,,0.00,,2013-02-20 19:01:00,
2013-02-20 19:11:00,15.0,5.0,-100.00,SE,145,11.0,16.0,62,0.00,,,0.00,,2013-02-20 19:11:00,
2013-02-20 19:21:00,16.0,5.0,-100.00,South,170,11.0,15.0,61,0.00,,,0.00,,2013-02-20 19:21:00,
2013-02-20 19:31:00,16.0,5.0,-100.00,South,170,11.0,15.0,61,0.00,,,0.00,,2013-02-20 19:31:00,
2013-02-20 19:41:00,16.0,5.0,-100.00,SSE,155,11.0,16.0,59,0.00,,,0.00,,2013-02-20 19:41:00,
2013-02-20 19:51:00,17.0,5.0,-100.00,SE,145,12.0,16.0,59,0.00,,,0.00,,2013-02-20 19:51:00,
2013-02-20 20:01:00,17.0,5.0,-100.00,SE,130,11.0,14.0,58,0.00,,,0.00,,2013-02-20 20:01:00,
2013-02-20 20:11:00,18.0,5.0,-100.00,ESE,115,9.0,15.0,57,0.00,,,0.00,,2013-02-20 20:11:00,
2013-02-20 20:21:00,19.0,5.0,-100.00,SE,145,11.0,15.0,56,0.00,,,0.00,,2013-02-20 20:21:00,
2013-02-20 20:31:00,19.0,5.0,-100.00,SE,135,11.0,14.0,55,0.00,,,0.00,,2013-02-20 20:31:00,
2013-02-20 20:41:00,20.0,7.0,-100.00,ESE,120,9.0,14.0,54,0.00,,,0.00,,2013-02-20 20:41:00,
2013-02-20 20:51:00,20.0,5.0,-100.00,SE,140,12.0,15.0,52,0.00,,,0.00,,2013-02-20 20:51:00,
2013-02-20 21:01:00,21.0,7.0,-100.00,ESE,120,11.0,20.0,51,0.00,,,0.00,,2013-02-20 21:01:00,
2013-02-20 21:11:00,21.0,7.0,-100.00,ESE,115,9.0,20.0,52,0.00,,,0.00,,2013-02-20 21:11:00,
2013-02-20 21:21:00,20.0,5.0,-100.00,SE,135,13.0,15.0,52,0.00,,,0.00,,2013-02-20 21:21:00,
2013-02-20 21:31:00,21.0,7.0,-100.00,SE,130,12.0,14.0,53,0.00,,,0.00,,2013-02-20 21:31:00,
2013-02-20 21:41:00,21.0,7.0,-100.00,SE,130,11.0,15.0,54,0.00,,,0.00,,2013-02-20 21:41:00,
2013-02-20 21:51:00,21.0,7.0,-100.00,SE,135,11.0,16.0,54,0.00,,,0.00,,2013-02-20 21:51:00,
2013-02-20 22:01:00,22.0,7.0,-100.00,SE,130,13.0,17.0,52,0.00,,,0.00,,2013-02-20 22:01:00,
2013-02-20 22:11:00,22.0,7.0,-100.00,SE,130,12.0,16.0,52,0.00,,,0.00,,2013-02-20 22:11:00,
2013-02-20 22:21:00,21.0,7.0,-100.00,SE,140,14.0,17.0,52,0.00,,,0.00,,2013-02-20 22:21:00,
2013-02-20 22:31:00,21.0,7.0,-100.00,SE,140,12.0,17.0,53,0.00,,,0.00,,2013-02-20 22:31:00,
2013-02-20 22:42:00,21.0,7.0,-100.00,SE,125,12.0,16.0,53,0.00,,,0.00,,2013-02-20 22:42:00,
2013-02-20 22:51:00,22.0,9.0,-100.00,SE,125,10.0,14.0,54,0.00,,,0.00,,2013-02-20 22:51:00,
2013-02-20 23:01:00,22.0,9.0,-100.00,SE,130,12.0,16.0,54,0.00,,,0.00,,2013-02-20 23:01:00,
2013-02-20 23:12:00,22.0,9.0,-100.00,ESE,115,13.0,16.0,54,0.00,,,0.00,,2013-02-20 23:12:00,
2013-02-20 23:22:00,22.0,9.0,-100.00,ESE,120,11.0,16.0,55,0.00,,,0.00,,2013-02-20 23:22:00,
2013-02-20 23:32:00,22.0,9.0,-100.00,ESE,115,9.0,17.0,55,0.00,,,0.00,,2013-02-20 23:32:00,
2013-02-20 23:42:00,22.0,9.0,-100.00,ESE,120,12.0,17.0,55,0.00,,,0.00,,2013-02-20 23:42:00,
2013-02-20 23:52:00,21.0,7.0,-100.00,SE,125,14.0,17.0,55,0.00,,,0.00,,2013-02-20 23:52:00,